Time;durP1;ratioP1;P1;durP2;ratioP2;P2;SDS_P1;SDS_P2;PMS_P1;PMS_P2;Temp;Humidity;BMP_temperature;BMP_pressure;BME280_temperature;BME280_humidity;BME280_pressure;Samples;Min_cycle;Max_cycle;Signal;HPM_P1;HPM_P2
2021/08/12 00:00:21;;;;;;;9.55;5.25;;;;;;;21.31;59.65;100555.53;5114949;28;20109;-72
2021/08/12 00:02:49;;;;;;;10.18;5.28;;;;;;;21.25;59.94;100556.13;5115296;28;20040;-71
2021/08/12 00:05:18;;;;;;;10.55;5.07;;;;;;;21.24;60.33;100566.13;5115001;28;20468;-71
2021/08/12 00:07:46;;;;;;;8.82;5.10;;;;;;;21.21;60.06;100571.00;5115184;28;20494;-71
2021/08/12 00:10:15;;;;;;;9.60;5.55;;;;;;;21.27;59.77;100563.13;5115024;28;20039;-71
2021/08/12 00:12:43;;;;;;;8.35;5.10;;;;;;;21.20;60.14;100558.44;5114937;28;20126;-71
2021/08/12 00:15:13;;;;;;;11.02;5.25;;;;;;;21.02;60.93;100561.97;5114646;28;20044;-71
2021/08/12 00:17:41;;;;;;;10.38;5.30;;;;;;;20.94;61.54;100563.72;5115010;28;20043;-71
2021/08/12 00:20:11;;;;;;;9.73;5.47;;;;;;;20.87;61.82;100563.50;5114725;28;20051;-71
2021/08/12 00:22:39;;;;;;;9.68;5.70;;;;;;;20.92;61.83;100561.19;5114440;28;20040;-71
2021/08/12 00:25:08;;;;;;;8.25;5.22;;;;;;;20.89;61.15;100563.34;5114766;28;20039;-71
2021/08/12 00:27:37;;;;;;;11.05;5.18;;;;;;;20.94;60.20;100572.75;5114347;28;20050;-71
2021/08/12 00:30:07;;;;;;;9.07;5.40;;;;;;;20.97;60.21;100575.16;5114696;28;20092;-71
2021/08/12 00:32:37;;;;;;;9.43;5.07;;;;;;;21.06;59.83;100579.66;5114220;28;20043;-71
2021/08/12 00:35:07;;;;;;;8.00;4.90;;;;;;;21.03;59.61;100579.94;5114378;28;20051;-71
2021/08/12 00:37:35;;;;;;;8.02;5.18;;;;;;;21.07;59.57;100580.53;5114199;28;20051;-71
2021/08/12 00:40:04;;;;;;;8.70;5.13;;;;;;;21.17;58.85;100577.75;5114282;28;20043;-71
2021/08/12 00:42:33;;;;;;;10.85;5.32;;;;;;;21.18;58.68;100576.72;5114227;28;20453;-71
2021/08/12 00:45:02;;;;;;;9.13;5.57;;;;;;;21.04;58.80;100570.84;5114358;28;20081;-71
2021/08/12 00:47:31;;;;;;;10.30;5.25;;;;;;;20.88;60.12;100578.78;5114158;28;20075;-71
2021/08/12 00:50:01;;;;;;;8.00;4.95;;;;;;;20.78;61.65;100580.69;5114234;28;20047;-71
2021/08/12 00:52:32;;;;;;;8.95;5.45;;;;;;;20.70;62.52;100583.28;5113878;28;20071;-71
2021/08/12 00:55:01;;;;;;;9.60;5.30;;;;;;;20.60;62.91;100588.72;5114415;28;20088;-71
2021/08/12 00:57:29;;;;;;;11.98;5.38;;;;;;;20.50;62.89;100580.63;5113946;28;20476;-72
2021/08/12 00:59:58;;;;;;;9.82;5.47;;;;;;;20.45;64.33;100577.50;5114047;28;20039;-71
2021/08/12 01:02:26;;;;;;;10.55;5.40;;;;;;;20.49;64.71;100576.22;5113566;28;20047;-71
2021/08/12 01:04:54;;;;;;;11.95;5.78;;;;;;;20.54;64.24;100576.63;5114127;28;20499;-71
2021/08/12 01:07:33;;;;;;;13.90;7.18;;;;;;;20.57;63.94;100578.19;5113639;28;20039;-71
2021/08/12 01:10:10;;;;;;;13.15;6.75;;;;;;;20.55;63.43;100581.03;5114171;28;20109;-71
2021/08/12 01:12:47;;;;;;;15.30;7.35;;;;;;;20.40;64.36;100576.22;5113610;28;20439;-71
2021/08/12 01:15:24;;;;;;;12.85;6.72;;;;;;;20.22;65.32;100590.53;5113887;28;20047;-71
2021/08/12 01:17:59;;;;;;;11.40;6.70;;;;;;;20.20;64.98;100587.13;5114065;28;20055;-71
2021/08/12 01:20:50;;;;;;;12.98;6.55;;;;;;;20.13;64.67;100575.16;5113801;28;20036;-72
2021/08/12 01:23:23;;;;;;;12.55;7.03;;;;;;;20.16;64.95;100582.13;5113702;28;20044;-71
2021/08/12 01:25:54;;;;;;;15.63;7.25;;;;;;;20.20;65.33;100580.84;5095702;28;20436;-72
2021/08/12 01:28:27;;;;;;;17.58;7.93;;;;;;;20.17;65.20;100575.69;5113301;28;20065;-72
2021/08/12 01:31:13;;;;;;;11.00;6.68;;;;;;;20.22;64.01;100584.25;5113920;28;20044;-71
2021/08/12 01:33:53;;;;;;;10.73;6.57;;;;;;;20.28;62.99;100578.28;5113256;28;20055;-71
2021/08/12 01:36:23;;;;;;;10.02;6.28;;;;;;;20.26;62.99;100580.25;5113316;28;20404;-75
2021/08/12 01:38:53;;;;;;;13.93;7.00;;;;;;;20.21;64.10;100578.00;5113813;28;20576;-71
2021/08/12 01:41:22;;;;;;;12.27;7.03;;;;;;;20.19;64.85;100584.56;5113339;28;20036;-77
2021/08/12 01:43:51;;;;;;;14.95;7.55;;;;;;;20.12;65.43;100572.59;5113650;28;20063;-71
2021/08/12 01:46:20;;;;;;;13.20;7.10;;;;;;;20.10;65.98;100577.31;5113342;28;20109;-71
2021/08/12 01:48:51;;;;;;;13.20;6.97;;;;;;;20.04;66.49;100575.16;5113392;28;20127;-71
2021/08/12 01:51:22;;;;;;;12.07;7.47;;;;;;;19.99;66.46;100579.19;5113556;28;20051;-71
2021/08/12 01:53:53;;;;;;;13.95;7.35;;;;;;;19.83;67.04;100576.19;5113548;28;20395;-71
2021/08/12 01:56:21;;;;;;;11.85;6.75;;;;;;;19.82;66.88;100570.94;5113389;28;20101;-71
2021/08/12 01:58:52;;;;;;;13.13;7.07;;;;;;;19.82;66.95;100577.19;5113432;28;20036;-71
2021/08/12 02:01:21;;;;;;;12.20;7.20;;;;;;;20.22;65.59;100574.28;5113389;28;20476;-71
2021/08/12 02:03:50;;;;;;;12.60;6.60;;;;;;;20.12;65.71;100578.00;5094936;28;20100;-71
2021/08/12 02:06:21;;;;;;;13.20;6.53;;;;;;;19.91;66.80;100579.03;5113492;28;20079;-71
2021/08/12 02:08:51;;;;;;;13.40;7.22;;;;;;;20.06;66.34;100589.41;5113600;28;20050;-71
2021/08/12 02:11:19;;;;;;;11.50;6.63;;;;;;;19.90;67.44;100588.16;5113227;28;20048;-71
2021/08/12 02:13:48;;;;;;;13.88;7.07;;;;;;;19.90;67.41;100580.03;5113088;28;20385;-71
2021/08/12 02:16:17;;;;;;;10.70;6.78;;;;;;;19.81;67.99;100586.31;5116288;28;20438;-71
2021/08/12 02:18:45;;;;;;;10.43;6.25;;;;;;;19.65;68.67;100589.59;5117077;28;20146;-71
2021/08/12 02:21:21;;;;;;;12.48;6.65;;;;;;;19.40;70.16;100588.28;5117105;28;20476;-71
2021/08/12 02:23:59;;;;;;;11.43;6.90;;;;;;;19.44;69.73;100588.84;5117158;28;20039;-71
2021/08/12 02:26:31;;;;;;;12.20;6.75;;;;;;;19.50;69.60;100585.59;5116621;28;20039;-71
2021/08/12 02:29:02;;;;;;;12.27;7.05;;;;;;;19.40;70.04;100593.69;5117157;28;20036;-71
2021/08/12 02:31:31;;;;;;;11.57;6.80;;;;;;;19.41;69.78;100594.53;5116832;28;20052;-71
2021/08/12 02:34:01;;;;;;;10.02;6.38;;;;;;;19.36;70.21;100603.06;5116825;28;20059;-71
2021/08/12 02:36:30;;;;;;;12.15;6.07;;;;;;;19.44;69.75;100594.25;5116640;28;20401;-71
2021/08/12 02:39:01;;;;;;;12.85;6.63;;;;;;;19.25;70.70;100594.22;5116624;28;20092;-71
2021/08/12 02:41:29;;;;;;;11.32;6.32;;;;;;;19.44;70.04;100591.53;5098466;28;20047;-71
2021/08/12 02:43:58;;;;;;;10.50;6.38;;;;;;;19.34;70.27;100590.69;5116746;28;20040;-71
2021/08/12 02:46:28;;;;;;;12.80;6.72;;;;;;;19.37;70.05;100591.25;5116330;28;20035;-72
2021/08/12 02:48:59;;;;;;;11.40;6.10;;;;;;;19.19;71.27;100586.66;5116561;28;20031;-71
2021/08/12 02:51:28;;;;;;;10.77;5.90;;;;;;;19.25;71.19;100588.81;5116142;28;20043;-72
2021/08/12 02:53:57;;;;;;;13.57;6.90;;;;;;;19.19;71.50;100583.97;5116525;28;20559;-71
2021/08/12 02:56:27;;;;;;;9.70;6.28;;;;;;;19.19;71.72;100594.78;5116224;28;20039;-82
2021/08/12 02:58:56;;;;;;;11.25;6.53;;;;;;;19.04;71.92;100595.19;5116585;28;20096;-71
2021/08/12 03:01:25;;;;;;;9.10;5.57;;;;;;;19.19;71.95;100601.03;5116282;28;20047;-71
2021/08/12 03:03:56;;;;;;;11.27;6.55;;;;;;;19.20;71.50;100597.34;5116265;28;20048;-71
2021/08/12 03:06:25;;;;;;;10.90;6.38;;;;;;;19.25;71.48;100605.91;5116442;28;20042;-71
2021/08/12 03:08:55;;;;;;;10.35;6.32;;;;;;;19.20;72.06;100607.28;5116234;28;20047;-71
2021/08/12 03:11:23;;;;;;;9.55;6.20;;;;;;;19.07;72.54;100607.56;5116055;28;20059;-71
2021/08/12 03:13:55;;;;;;;9.20;6.00;;;;;;;19.09;72.27;100616.38;5116109;28;20043;-71
2021/08/12 03:16:23;;;;;;;10.20;5.95;;;;;;;19.05;71.60;100618.53;5098012;28;20142;-71
2021/08/12 03:18:53;;;;;;;10.48;6.32;;;;;;;19.04;71.71;100621.38;5116161;28;20048;-71
2021/08/12 03:21:21;;;;;;;10.75;5.75;;;;;;;19.10;71.41;100618.09;5115771;28;20050;-71
2021/08/12 03:23:50;;;;;;;9.55;5.43;;;;;;;19.13;71.18;100612.44;5097261;28;20101;-71
2021/08/12 03:26:18;;;;;;;9.07;5.70;;;;;;;19.17;71.09;100621.97;5115471;28;20039;-71
2021/08/12 03:28:47;;;;;;;9.45;5.60;;;;;;;19.30;70.83;100630.69;5115580;28;20043;-71
2021/08/12 03:31:16;;;;;;;11.45;5.90;;;;;;;19.09;71.24;100632.59;5115811;28;20054;-70
2021/08/12 03:33:45;;;;;;;9.77;5.80;;;;;;;19.22;70.97;100633.22;5115434;28;20112;-72
2021/08/12 03:36:13;;;;;;;10.93;6.22;;;;;;;19.21;70.84;100636.06;5115543;28;20048;-72
2021/08/12 03:38:41;;;;;;;11.57;5.82;;;;;;;19.12;71.29;100635.06;5115300;28;20039;-72
2021/08/12 03:41:09;;;;;;;9.98;5.72;;;;;;;19.22;70.60;100648.59;5115503;28;20044;-72
2021/08/12 03:43:38;;;;;;;9.45;6.03;;;;;;;19.22;70.62;100646.75;5115132;28;20040;-72
2021/08/12 03:46:06;;;;;;;12.80;6.22;;;;;;;19.13;70.58;100650.28;5115350;28;20089;-72
2021/08/12 03:48:36;;;;;;;10.23;6.20;;;;;;;19.11;71.16;100652.28;5115062;28;20551;-72
2021/08/12 03:51:04;;;;;;;11.55;6.20;;;;;;;19.19;71.10;100654.25;5115434;28;20044;-72
2021/08/12 03:53:33;;;;;;;12.20;6.53;;;;;;;19.20;71.09;100651.41;5115199;28;20126;-72
2021/08/12 03:56:03;;;;;;;11.55;5.55;;;;;;;19.29;71.00;100650.59;5115218;28;20074;-72
2021/08/12 03:58:32;;;;;;;8.80;5.50;;;;;;;19.37;70.62;100652.59;5115344;28;20380;-72
2021/08/12 04:01:00;;;;;;;8.90;5.57;;;;;;;19.49;70.21;100650.63;5115297;28;20050;-73
2021/08/12 04:03:29;;;;;;;11.25;5.93;;;;;;;19.59;69.66;100651.53;5114888;28;20067;-72
2021/08/12 04:05:58;;;;;;;9.95;5.68;;;;;;;19.77;68.90;100660.66;5115136;28;20039;-72
2021/08/12 04:08:28;;;;;;;9.85;5.93;;;;;;;20.02;67.56;100660.09;5114889;28;20088;-72
2021/08/12 04:10:57;;;;;;;10.82;5.70;;;;;;;19.95;68.31;100663.53;5114882;28;20047;-72
2021/08/12 04:13:25;;;;;;;12.45;5.90;;;;;;;20.11;67.65;100660.25;5114819;28;20048;-72
2021/08/12 04:15:54;;;;;;;12.05;5.63;;;;;;;20.48;66.38;100666.66;5114617;28;20043;-72
2021/08/12 04:18:24;;;;;;;9.57;5.32;;;;;;;20.64;65.23;100666.03;5114836;28;20122;-72
2021/08/12 04:20:52;;;;;;;13.82;5.57;;;;;;;20.72;65.14;100668.00;5114395;28;20138;-72
2021/08/12 04:23:22;;;;;;;10.88;5.35;;;;;;;20.78;64.72;100664.72;5096262;28;20055;-71
2021/08/12 04:25:52;;;;;;;9.73;5.43;;;;;;;20.53;65.73;100668.91;5114392;28;20047;-71
2021/08/12 04:28:20;;;;;;;9.05;5.68;;;;;;;20.62;65.47;100661.75;5114804;28;20046;-72
2021/08/12 04:30:49;;;;;;;10.57;5.70;;;;;;;20.78;64.25;100670.97;5114369;28;20458;-72
2021/08/12 04:33:18;;;;;;;10.00;5.88;;;;;;;20.65;64.90;100666.88;5096218;28;20395;-72
2021/08/12 04:35:46;;;;;;;10.68;5.82;;;;;;;20.98;63.79;100674.47;5114178;28;20050;-71
2021/08/12 04:38:14;;;;;;;10.10;6.22;;;;;;;21.00;63.11;100671.59;5114025;28;20039;-71
2021/08/12 04:40:43;;;;;;;8.43;5.25;;;;;;;21.17;61.91;100669.97;5114421;28;20044;-72
2021/08/12 04:43:12;;;;;;;9.25;5.63;;;;;;;21.44;60.77;100664.56;5114310;28;20039;-71
2021/08/12 04:45:40;;;;;;;8.55;5.18;;;;;;;21.38;60.88;100671.44;5113972;28;20039;-72
2021/08/12 04:48:08;;;;;;;9.27;5.30;;;;;;;21.52;60.37;100667.38;5114259;28;20051;-71
2021/08/12 04:50:38;;;;;;;8.73;5.32;;;;;;;21.98;58.83;100673.59;5113846;28;20047;-71
2021/08/12 04:53:06;;;;;;;8.52;4.93;;;;;;;22.32;57.88;100659.31;5114314;28;20047;-71
2021/08/12 04:55:34;;;;;;;9.88;5.25;;;;;;;22.58;56.65;100671.03;5113800;28;20056;-72
2021/08/12 04:58:06;;;;;;;10.05;4.90;;;;;;;22.58;56.58;100673.75;5114007;28;20393;-71
2021/08/12 05:00:34;;;;;;;10.18;5.20;;;;;;;22.26;57.31;100671.66;5113941;28;20038;-75
2021/08/12 05:03:03;;;;;;;9.88;4.88;;;;;;;22.02;57.93;100675.00;5114045;28;20051;-71
2021/08/12 05:05:32;;;;;;;10.23;5.25;;;;;;;21.88;58.43;100680.97;5096230;28;20040;-71
2021/08/12 05:08:01;;;;;;;9.30;5.30;;;;;;;21.74;58.38;100676.09;5113842;28;20047;-71
2021/08/12 05:10:29;;;;;;;11.13;5.10;;;;;;;21.42;59.37;100682.84;5113797;28;20131;-71
2021/08/12 05:12:57;;;;;;;9.68;4.93;;;;;;;21.57;59.31;100677.75;5113439;28;20492;-71
2021/08/12 05:15:27;;;;;;;8.35;5.28;;;;;;;21.45;59.70;100687.97;5113887;28;20457;-71
2021/08/12 05:17:56;;;;;;;9.70;4.95;;;;;;;21.63;59.77;100685.31;5113821;28;20043;-71
2021/08/12 05:20:24;;;;;;;9.63;5.13;;;;;;;21.99;58.16;100695.16;5113985;28;20036;-71
2021/08/12 05:22:52;;;;;;;11.18;5.50;;;;;;;21.97;58.59;100685.47;5113383;28;20046;-71
2021/08/12 05:25:22;;;;;;;8.23;5.10;;;;;;;22.04;58.12;100683.00;5113585;28;20119;-71
2021/08/12 05:27:50;;;;;;;11.45;4.70;;;;;;;22.50;56.99;100687.31;5113459;28;20043;-71
2021/08/12 05:30:19;;;;;;;9.65;5.03;;;;;;;22.85;55.91;100692.66;5113515;28;20048;-71
2021/08/12 05:32:48;;;;;;;12.68;4.80;;;;;;;23.31;54.39;100686.94;5113212;28;20069;-71
2021/08/12 05:35:17;;;;;;;8.85;5.15;;;;;;;23.70;52.88;100690.84;5113753;28;20058;-71
2021/08/12 05:37:45;;;;;;;9.63;4.95;;;;;;;24.05;51.57;100690.75;5113272;28;20039;-71
2021/08/12 05:40:14;;;;;;;10.75;4.53;;;;;;;24.11;51.48;100698.22;5113523;28;20067;-71
2021/08/12 05:42:43;;;;;;;9.52;5.05;;;;;;;24.68;50.03;100695.50;5113264;28;20043;-72
2021/08/12 05:45:11;;;;;;;12.38;5.30;;;;;;;24.95;49.22;100697.84;5113403;28;20044;-71
2021/08/12 05:47:40;;;;;;;8.25;4.80;;;;;;;25.07;48.77;100695.63;5113409;28;20465;-72
2021/08/12 05:50:10;;;;;;;8.55;4.78;;;;;;;24.90;48.19;100700.25;5116457;28;20560;-72
2021/08/12 05:52:38;;;;;;;9.95;4.68;;;;;;;25.06;48.11;100694.78;5117393;28;20043;-72
2021/08/12 05:55:07;;;;;;;9.50;4.78;;;;;;;24.99;48.17;100698.34;5117901;28;20044;-71
2021/08/12 05:57:35;;;;;;;9.77;4.80;;;;;;;25.20;47.39;100700.53;5117525;28;20116;-71
2021/08/12 06:00:04;;;;;;;9.25;4.47;;;;;;;25.25;46.54;100703.59;5117692;28;20446;-72
2021/08/12 06:02:33;;;;;;;6.90;3.97;;;;;;;25.38;46.58;100703.84;5117535;28;20043;-71
2021/08/12 06:05:01;;;;;;;9.68;4.57;;;;;;;25.84;45.54;100709.47;5116967;28;20545;-72
2021/08/12 06:07:31;;;;;;;8.82;4.60;;;;;;;25.93;45.50;100709.22;5117271;28;20118;-72
2021/08/12 06:10:00;;;;;;;8.75;5.20;;;;;;;25.75;45.55;100710.53;5116896;28;20069;-71
2021/08/12 06:12:28;;;;;;;7.95;4.45;;;;;;;25.62;46.10;100720.13;5117241;28;20403;-72
2021/08/12 06:14:57;;;;;;;8.35;5.05;;;;;;;25.59;46.01;100712.31;5116860;28;20035;-71
2021/08/12 06:17:28;;;;;;;13.50;4.63;;;;;;;26.07;45.84;100707.63;5116870;28;20492;-72
2021/08/12 06:19:57;;;;;;;10.75;4.65;;;;;;;26.25;44.77;100707.31;5116724;28;20220;-72
2021/08/12 06:22:25;;;;;;;7.95;4.30;;;;;;;26.04;44.57;100707.09;5117200;28;20127;-72
2021/08/12 06:24:55;;;;;;;10.85;4.50;;;;;;;26.27;44.56;100705.25;5116734;28;20047;-72
2021/08/12 06:27:23;;;;;;;8.80;4.57;;;;;;;26.41;44.85;100707.19;5116927;28;20050;-72
2021/08/12 06:29:51;;;;;;;9.35;4.32;;;;;;;26.62;43.58;100703.75;5116613;28;20450;-72
2021/08/12 06:32:19;;;;;;;7.85;4.43;;;;;;;26.96;43.61;100716.06;5117006;28;20529;-73
2021/08/12 06:34:48;;;;;;;8.60;4.35;;;;;;;26.72;43.87;100698.00;5116885;28;20484;-72
2021/08/12 06:37:16;;;;;;;8.18;3.92;;;;;;;27.31;42.52;100715.34;5116887;28;20070;-72
2021/08/12 06:39:44;;;;;;;7.13;4.30;;;;;;;26.80;43.18;100706.97;5116550;28;20047;-72
2021/08/12 06:42:13;;;;;;;7.65;4.40;;;;;;;27.33;41.25;100707.78;5116494;28;20069;-72
2021/08/12 06:44:42;;;;;;;7.72;4.38;;;;;;;27.59;41.06;100706.41;5116171;28;20047;-73
2021/08/12 06:47:10;;;;;;;9.15;4.22;;;;;;;27.72;40.68;100714.84;5116403;28;20043;-72
2021/08/12 06:49:39;;;;;;;6.80;4.30;;;;;;;27.23;42.12;100715.44;5116676;28;20039;-72
2021/08/12 06:52:08;;;;;;;6.50;4.05;;;;;;;27.62;41.19;100717.88;5116657;28;20454;-72
2021/08/12 06:54:36;;;;;;;7.75;4.55;;;;;;;27.76;41.67;100718.03;5116327;28;20062;-72
2021/08/12 06:57:05;;;;;;;6.55;4.40;;;;;;;27.78;41.10;100715.94;5116064;28;20130;-72
2021/08/12 06:59:35;;;;;;;8.10;4.32;;;;;;;27.91;41.29;100721.59;5116113;28;20515;-72
2021/08/12 07:02:03;;;;;;;7.43;3.92;;;;;;;27.98;40.03;100718.91;5115183;28;20126;-72
2021/08/12 07:04:32;;;;;;;9.30;4.20;;;;;;;27.49;41.31;100720.41;5115976;28;20043;-72
2021/08/12 07:07:00;;;;;;;8.15;3.78;;;;;;;27.13;41.04;100722.25;5115878;28;20439;-72
2021/08/12 07:09:28;;;;;;;8.43;3.72;;;;;;;26.81;42.06;100719.63;5116370;28;20423;-72
2021/08/12 07:11:57;;;;;;;8.35;3.83;;;;;;;26.69;42.05;100723.84;5115669;28;20040;-72
2021/08/12 07:14:25;;;;;;;8.80;4.03;;;;;;;26.77;42.37;100722.94;5115916;28;20390;-71
2021/08/12 07:16:55;;;;;;;10.55;4.38;;;;;;;26.65;43.03;100719.81;5115786;28;20044;-71
2021/08/12 07:19:23;;;;;;;7.15;3.80;;;;;;;26.46;42.62;100721.16;5115872;28;20048;-71
2021/08/12 07:21:52;;;;;;;7.05;3.88;;;;;;;26.31;43.65;100717.50;5115585;28;20097;-71
2021/08/12 07:24:21;;;;;;;7.93;4.30;;;;;;;26.42;42.79;100722.56;5115653;28;20069;-71
2021/08/12 07:26:53;;;;;;;;;;;;;;;26.41;43.28;100711.81;5116162;28;20039;-71
2021/08/12 07:29:21;;;;;;;7.32;3.80;;;;;;;26.11;43.26;100719.88;5115770;28;20385;-71
2021/08/12 07:31:49;;;;;;;7.25;4.03;;;;;;;26.04;44.57;100721.63;5115443;28;20060;-71
2021/08/12 07:34:19;;;;;;;9.38;4.00;;;;;;;26.02;44.57;100720.97;5115819;28;20393;-71
2021/08/12 07:36:48;;;;;;;10.55;4.30;;;;;;;26.06;44.30;100718.72;5115164;28;20040;-71
2021/08/12 07:39:16;;;;;;;6.30;3.60;;;;;;;26.13;43.47;100719.69;5115796;28;20031;-71
2021/08/12 07:41:44;;;;;;;6.97;3.90;;;;;;;26.14;43.83;100722.22;5115418;28;20048;-81
2021/08/12 07:44:15;;;;;;;9.05;4.32;;;;;;;26.02;43.60;100726.41;5115416;28;20035;-71
2021/08/12 07:46:43;;;;;;;7.53;4.20;;;;;;;26.14;42.86;100732.31;5115482;28;20052;-71
2021/08/12 07:49:11;;;;;;;6.53;3.92;;;;;;;26.15;43.47;100729.44;5115263;28;20044;-72
2021/08/12 07:51:43;;;;;;;6.63;3.90;;;;;;;26.29;42.19;100729.66;5115239;28;20122;-71
2021/08/12 07:54:11;;;;;;;8.02;4.03;;;;;;;26.40;41.92;100730.09;5115301;28;20044;-71
2021/08/12 07:56:39;;;;;;;7.72;3.88;;;;;;;26.25;42.02;100727.28;5115339;28;20093;-71
2021/08/12 07:59:08;;;;;;;8.77;3.70;;;;;;;26.30;42.43;100732.19;5115227;28;20039;-71
2021/08/12 08:01:37;;;;;;;8.88;3.80;;;;;;;26.33;41.61;100739.19;5115003;28;20040;-71
2021/08/12 08:04:06;;;;;;;7.40;3.83;;;;;;;26.14;41.81;100727.69;5114586;28;20458;-71
2021/08/12 08:06:36;;;;;;;7.75;3.83;;;;;;;26.25;41.69;100735.50;5115181;28;20464;-71
2021/08/12 08:09:06;;;;;;;5.95;3.42;;;;;;;26.30;41.31;100739.56;5114893;28;20044;-71
2021/08/12 08:11:34;;;;;;;5.70;3.45;;;;;;;26.25;39.92;100734.66;5114818;28;20404;-71
2021/08/12 08:14:02;;;;;;;8.15;3.67;;;;;;;26.10;41.15;100742.78;5113706;28;20039;-71
2021/08/12 08:16:31;;;;;;;8.25;3.67;;;;;;;25.95;41.49;100747.31;5114716;28;20047;-71
2021/08/12 08:19:00;;;;;;;6.53;3.65;;;;;;;26.11;41.88;100739.00;5114464;28;20130;-71
2021/08/12 08:21:29;;;;;;;7.20;3.70;;;;;;;26.16;41.89;100742.06;5114523;28;20057;-71
2021/08/12 08:23:57;;;;;;;6.07;3.30;;;;;;;26.27;40.02;100735.31;5114564;28;20094;-71
2021/08/12 08:26:27;;;;;;;5.72;3.05;;;;;;;26.27;39.47;100746.25;5114531;28;20118;-71
2021/08/12 08:28:55;;;;;;;7.22;3.08;;;;;;;26.48;38.52;100740.97;5114257;28;20221;-71
2021/08/12 08:31:23;;;;;;;6.32;3.13;;;;;;;26.64;38.35;100750.94;5114605;28;20040;-71
2021/08/12 08:33:51;;;;;;;5.72;3.10;;;;;;;26.73;38.73;100748.94;5113888;28;20556;-71
2021/08/12 08:36:20;;;;;;;10.32;3.33;;;;;;;26.47;39.51;100744.75;5096123;28;20055;-71
2021/08/12 08:38:49;;;;;;;7.75;3.40;;;;;;;26.53;38.59;100743.16;5114172;28;20051;-81
2021/08/12 08:41:17;;;;;;;6.47;3.10;;;;;;;26.45;39.51;100741.34;5114278;28;20078;-71
2021/08/12 08:43:48;;;;;;;8.88;3.50;;;;;;;26.42;37.98;100751.78;5114122;28;20051;-70
2021/08/12 08:46:17;;;;;;;5.93;3.17;;;;;;;26.58;38.17;100739.88;5114402;28;20050;-71
2021/08/12 08:48:47;;;;;;;5.43;3.30;;;;;;;26.64;37.49;100734.53;5113943;28;20044;-70
2021/08/12 08:51:16;;;;;;;7.07;3.03;;;;;;;26.66;36.54;100737.91;5113815;28;20040;-70
2021/08/12 08:53:45;;;;;;;6.10;2.90;;;;;;;26.70;35.65;100732.91;5114180;28;20396;-70
2021/08/12 08:56:13;;;;;;;6.47;3.10;;;;;;;26.74;33.34;100735.13;5113726;28;20040;-70
2021/08/12 08:58:41;;;;;;;5.43;2.90;;;;;;;26.65;33.83;100736.22;5114006;28;20456;-70
2021/08/12 09:01:12;;;;;;;5.25;2.80;;;;;;;26.69;34.32;100740.28;5113770;28;20044;-71
2021/08/12 09:03:40;;;;;;;5.28;2.88;;;;;;;26.91;32.82;100741.25;5114125;28;20157;-70
2021/08/12 09:06:09;;;;;;;6.47;3.00;;;;;;;26.94;33.57;100748.25;5113399;28;20040;-70
2021/08/12 09:08:38;;;;;;;5.25;2.92;;;;;;;26.86;34.05;100748.34;5113671;28;20040;-70
2021/08/12 09:11:06;;;;;;;7.38;3.13;;;;;;;26.99;33.77;100743.91;5113504;28;20049;-70
2021/08/12 09:13:39;;;;;;;5.35;2.70;;;;;;;26.97;34.30;100745.13;5096047;28;20056;-70
2021/08/12 09:16:29;;;;;;;5.57;2.97;;;;;;;27.04;33.88;100757.09;5113344;28;20043;-71
2021/08/12 09:19:12;;;;;;;6.35;3.13;;;;;;;26.95;34.29;100744.47;5113205;28;20438;-71
2021/08/12 09:21:41;;;;;;;6.45;2.67;;;;;;;27.08;35.38;100748.28;5095646;28;20130;-70
2021/08/12 09:24:09;;;;;;;5.22;3.13;;;;;;;27.03;34.45;100744.44;5112832;28;20040;-71
2021/08/12 09:26:42;;;;;;;4.70;2.50;;;;;;;27.12;34.78;100739.69;5113433;28;20050;-71
2021/08/12 09:29:10;;;;;;;;;;;;;;;27.14;34.40;100738.50;5113592;28;20048;-70
2021/08/12 09:31:56;;;;;;;5.53;2.90;;;;;;;27.16;33.98;100739.16;5113253;28;20369;-71
2021/08/12 09:34:39;;;;;;;5.10;2.83;;;;;;;27.18;34.30;100736.22;5113258;28;20097;-71
2021/08/12 09:37:08;;;;;;;8.52;2.92;;;;;;;27.38;33.60;100745.56;5095464;28;20442;-71
2021/08/12 09:39:36;;;;;;;7.93;3.10;;;;;;;27.14;34.00;100749.44;5113315;28;20126;-71
2021/08/12 09:42:05;;;;;;;6.35;2.92;;;;;;;27.07;33.69;100743.00;5113348;28;20047;-71
2021/08/12 09:44:37;;;;;;;5.25;3.20;;;;;;;27.29;34.28;100738.47;5113026;28;20061;-71
2021/08/12 09:47:09;;;;;;;6.40;3.25;;;;;;;27.44;34.86;100744.81;5113315;28;20537;-71
2021/08/12 09:49:45;;;;;;;6.78;3.50;;;;;;;27.57;33.76;100747.72;5113664;28;20056;-71
2021/08/12 09:52:28;;;;;;;6.60;2.97;;;;;;;27.51;34.36;100739.44;5113000;28;20442;-71
2021/08/12 09:55:03;;;;;;;9.07;3.05;;;;;;;27.26;34.53;100747.94;5113177;28;20039;-72
2021/08/12 09:57:41;;;;;;;8.75;3.40;;;;;;;27.39;35.06;100748.09;5113601;28;20044;-71
2021/08/12 10:00:11;;;;;;;5.95;2.92;;;;;;;27.39;34.72;100739.88;5112824;28;20039;-71
2021/08/12 10:02:41;;;;;;;6.82;3.00;;;;;;;27.67;34.56;100733.75;5113489;28;20044;-71
2021/08/12 10:05:12;;;;;;;6.18;3.08;;;;;;;27.65;33.92;100733.06;5113140;28;20396;-71
2021/08/12 10:07:42;;;;;;;5.68;3.10;;;;;;;27.51;34.07;100736.69;5113101;28;20236;-71
2021/08/12 10:10:17;;;;;;;6.03;3.20;;;;;;;27.47;33.98;100743.56;5112854;28;20039;-71
2021/08/12 10:12:47;;;;;;;5.13;2.80;;;;;;;27.43;34.20;100751.34;5095131;28;20491;-71
2021/08/12 10:15:18;;;;;;;5.97;3.00;;;;;;;27.62;34.27;100737.03;5112634;28;20052;-71
2021/08/12 10:17:49;;;;;;;5.80;3.17;;;;;;;27.79;33.75;100729.47;5113402;28;20097;-71
2021/08/12 10:20:21;;;;;;;6.13;3.00;;;;;;;27.79;34.12;100731.34;5113193;28;20044;-71
2021/08/12 10:22:50;;;;;;;6.15;3.20;;;;;;;27.86;33.83;100735.03;5113190;28;20126;-71
2021/08/12 10:25:20;;;;;;;6.35;2.80;;;;;;;27.99;32.90;100728.84;5112705;28;20051;-71
2021/08/12 10:27:50;;;;;;;6.13;3.00;;;;;;;28.12;33.03;100745.44;5112854;28;20099;-71
2021/08/12 10:30:21;;;;;;;5.78;3.00;;;;;;;28.07;33.80;100731.47;5112902;28;20043;-71
2021/08/12 10:32:54;;;;;;;4.38;2.90;;;;;;;28.06;32.71;100740.72;5112782;28;20074;-71
2021/08/12 10:35:24;;;;;;;6.90;3.38;;;;;;;28.16;33.64;100731.13;5113126;28;20112;-71
2021/08/12 10:37:54;;;;;;;5.47;3.10;;;;;;;28.14;33.09;100738.72;5117086;28;20058;-71
2021/08/12 10:40:24;;;;;;;5.75;3.03;;;;;;;28.07;33.31;100739.69;5116729;28;20448;-71
2021/08/12 10:42:54;;;;;;;6.03;3.20;;;;;;;28.23;33.58;100725.72;5116887;28;20472;-71
2021/08/12 10:45:24;;;;;;;5.88;2.92;;;;;;;28.27;33.43;100729.75;5116945;28;20386;-71
2021/08/12 10:47:55;;;;;;;5.10;3.00;;;;;;;28.25;33.04;100726.38;5116788;28;20054;-71
2021/08/12 10:50:41;;;;;;;6.85;3.20;;;;;;;28.37;33.30;100718.50;5116469;28;20045;-71
2021/08/12 10:53:19;;;;;;;5.25;2.90;;;;;;;28.45;33.41;100724.69;5116144;28;20044;-71
2021/08/12 10:56:14;;;;;;;5.63;2.85;;;;;;;28.42;32.74;100725.09;5116539;28;20386;-71
2021/08/12 10:58:45;;;;;;;7.28;3.00;;;;;;;28.22;32.85;100729.53;5116360;28;20047;-71
2021/08/12 11:01:14;;;;;;;7.07;3.30;;;;;;;28.34;33.07;100717.00;5097817;28;20600;-71
2021/08/12 11:03:48;;;;;;;5.47;3.20;;;;;;;28.34;33.98;100711.50;5116857;28;20438;-71
2021/08/12 11:06:18;;;;;;;5.35;2.92;;;;;;;28.51;32.65;100707.44;5115951;28;20066;-71
2021/08/12 11:09:01;;;;;;;5.28;2.95;;;;;;;28.39;33.11;100703.56;5116381;28;20043;-71
2021/08/12 11:11:52;;;;;;;6.10;3.20;;;;;;;28.34;33.10;100722.50;5116133;28;20040;-71
2021/08/12 11:14:53;;;;;;;5.70;3.10;;;;;;;28.26;34.12;100708.88;5116016;28;20051;-71
2021/08/12 11:17:22;;;;;;;6.22;3.40;;;;;;;28.27;34.18;100705.06;5115828;28;20078;-71
2021/08/12 11:19:53;;;;;;;5.57;3.20;;;;;;;28.33;33.38;100704.34;5116018;28;20469;-71
2021/08/12 11:22:42;;;;;;;7.15;3.40;;;;;;;28.37;34.40;100697.41;5115478;28;20135;-71
2021/08/12 11:25:10;;;;;;;5.97;3.10;;;;;;;28.46;33.54;100698.09;5109627;28;20460;-71
2021/08/12 11:27:46;;;;;;;6.20;3.28;;;;;;;28.54;33.36;100695.22;5115597;28;20070;-71
2021/08/12 11:30:48;;;;;;;7.38;2.90;;;;;;;28.38;33.38;100698.28;5115444;28;20050;-71
2021/08/12 11:33:46;;;;;;;5.28;3.00;;;;;;;28.37;34.15;100694.66;5115105;28;20055;-71
2021/08/12 11:36:24;;;;;;;6.68;3.08;;;;;;;28.32;33.51;100694.41;5115205;28;20051;-71